createdAt,value
2022-11-03T00:00:20.613Z,99776.81
2022-11-03T00:01:22.857Z,99774.19
2022-11-03T00:02:25.101Z,99773.88
2022-11-03T00:03:27.923Z,99778.34
2022-11-03T00:04:30.109Z,99774.69
2022-11-03T00:05:50.535Z,99772.06
2022-11-03T00:06:54.920Z,99770.31
2022-11-03T00:07:57.109Z,99781.47
2022-11-03T00:09:01.429Z,99771.94
2022-11-03T00:10:03.852Z,99772.75
2022-11-03T00:11:15.229Z,99777.09
2022-11-03T00:12:17.429Z,99768.47
2022-11-03T00:13:19.585Z,99765.09
2022-11-03T00:14:21.839Z,99766.63
2022-11-03T00:15:24.050Z,99768.59
2022-11-03T00:16:26.195Z,99757.53
2022-11-03T00:17:28.380Z,99769.91
2022-11-03T00:18:30.611Z,99768.09
2022-11-03T00:19:32.760Z,99759.69
2022-11-03T00:20:34.912Z,99762.16
2022-11-03T00:21:37.589Z,99762.00
2022-11-03T00:22:39.885Z,99761.91
2022-11-03T00:23:44.562Z,99756.59
2022-11-03T00:24:46.789Z,99757.38
2022-11-03T00:25:48.942Z,99763.22
2022-11-03T00:26:51.224Z,99760.59
2022-11-03T00:27:56.851Z,99747.56
2022-11-03T00:29:01.704Z,99749.34
2022-11-03T00:30:04.015Z,99749.31
2022-11-03T00:31:09.472Z,99740.00
2022-11-03T00:32:11.667Z,99754.97
2022-11-03T00:33:13.840Z,99750.81
2022-11-03T00:34:16.036Z,99741.31
2022-11-03T00:35:18.288Z,99752.03
2022-11-03T00:36:22.721Z,99748.72
2022-11-03T00:37:24.881Z,99750.00
2022-11-03T00:38:28.341Z,99744.66
2022-11-03T00:39:30.504Z,99749.88
2022-11-03T00:40:32.661Z,99746.59
2022-11-03T00:41:35.581Z,99746.59
2022-11-03T00:42:39.001Z,99749.13
2022-11-03T00:43:41.751Z,99742.34
2022-11-03T00:44:43.880Z,99748.25
2022-11-03T00:45:46.003Z,99736.09
2022-11-03T00:46:48.238Z,99734.44
2022-11-03T00:48:08.956Z,99729.59
2022-11-03T00:49:11.292Z,99733.03
2022-11-03T00:50:13.492Z,99728.06
2022-11-03T00:51:27.094Z,99729.66
2022-11-03T00:52:29.268Z,99724.31
2022-11-03T00:53:33.301Z,99728.50
2022-11-03T00:54:35.571Z,99718.25
2022-11-03T00:55:37.750Z,99716.66
2022-11-03T00:56:42.121Z,99721.97
2022-11-03T00:57:45.162Z,99720.41
2022-11-03T00:58:47.626Z,99713.38
2022-11-03T00:59:49.773Z,99710.97
2022-11-03T01:00:59.112Z,99713.47
2022-11-03T01:02:01.420Z,99706.34
2022-11-03T01:03:04.034Z,99710.63
2022-11-03T01:04:25.861Z,99707.06
2022-11-03T01:05:46.250Z,99707.75
2022-11-03T01:06:50.552Z,99702.47
2022-11-03T01:07:53.226Z,99701.00
2022-11-03T01:08:55.481Z,99699.94
2022-11-03T01:09:57.662Z,99694.16
2022-11-03T01:11:30.519Z,99700.81
2022-11-03T01:12:32.685Z,99692.81
2022-11-03T01:13:34.881Z,99689.22
2022-11-03T01:14:38.422Z,99694.28
2022-11-03T01:15:40.619Z,99689.06
2022-11-03T01:16:43.050Z,99684.00
2022-11-03T01:17:45.202Z,99685.78
2022-11-03T01:18:47.856Z,99691.81
2022-11-03T01:19:50.325Z,99695.34
2022-11-03T01:20:56.685Z,99692.91
2022-11-03T01:21:58.845Z,99689.50
2022-11-03T01:23:00.985Z,99688.38
2022-11-03T01:24:05.000Z,99692.84
2022-11-03T01:25:07.548Z,99692.81
2022-11-03T01:26:11.887Z,99689.31
2022-11-03T01:27:19.641Z,99691.22
2022-11-03T01:28:21.939Z,99685.34
2022-11-03T01:29:24.196Z,99692.13
2022-11-03T01:30:26.429Z,99692.81
2022-11-03T01:31:29.212Z,99692.59
2022-11-03T01:32:31.478Z,99688.09
2022-11-03T01:33:33.774Z,99689.72
2022-11-03T01:34:36.242Z,99684.69
2022-11-03T01:35:38.442Z,99688.84
2022-11-03T01:36:40.615Z,99683.66
2022-11-03T01:37:43.705Z,99694.13
2022-11-03T01:38:46.331Z,99684.25
2022-11-03T01:39:48.528Z,99684.56
2022-11-03T01:40:51.072Z,99670.19
2022-11-03T01:41:53.626Z,99683.50
2022-11-03T01:42:55.810Z,99681.13
2022-11-03T01:44:06.702Z,99685.69
2022-11-03T01:45:09.763Z,99675.81
2022-11-03T01:46:24.393Z,99675.91
2022-11-03T01:47:30.791Z,99676.66
2022-11-03T01:48:34.580Z,99677.38
2022-11-03T01:49:58.754Z,99673.59
2022-11-03T01:51:02.881Z,99669.25
2022-11-03T01:52:33.954Z,99674.47
2022-11-03T01:53:41.318Z,99668.16
2022-11-03T01:54:46.300Z,99670.84
2022-11-03T01:55:50.784Z,99667.25
2022-11-03T01:56:54.152Z,99671.69
2022-11-03T01:58:02.447Z,99667.41
2022-11-03T01:59:04.818Z,99677.06
2022-11-03T02:00:07.789Z,99669.63
2022-11-03T02:01:16.748Z,99669.81
2022-11-03T02:02:19.077Z,99667.34
2022-11-03T02:03:23.343Z,99680.50
2022-11-03T02:04:32.957Z,99670.03
2022-11-03T02:05:36.143Z,99666.94
2022-11-03T02:06:38.750Z,99667.50
2022-11-03T02:07:52.639Z,99669.94
2022-11-03T02:09:00.213Z,99661.22
2022-11-03T02:10:02.815Z,99657.69
2022-11-03T02:11:25.072Z,99661.50
2022-11-03T02:12:27.331Z,99654.16
2022-11-03T02:13:29.497Z,99653.47
2022-11-03T02:14:31.721Z,99650.88
2022-11-03T02:15:35.889Z,99654.16
2022-11-03T02:16:38.592Z,99655.75
2022-11-03T02:17:43.407Z,99656.41
2022-11-03T02:18:46.950Z,99651.94
2022-11-03T02:19:54.769Z,99645.75
2022-11-03T02:21:44.091Z,99641.41
2022-11-03T02:23:15.319Z,99645.31
2022-11-03T02:24:42.225Z,99634.19
2022-11-03T02:25:45.671Z,99630.97
2022-11-03T02:26:48.992Z,99633.75
2022-11-03T02:27:51.178Z,99628.47
2022-11-03T02:30:01.026Z,99621.13
2022-11-03T02:31:38.518Z,99616.59
2022-11-03T02:32:45.950Z,99618.19
2022-11-03T02:34:01.088Z,99611.94
2022-11-03T02:35:30.294Z,99613.72
2022-11-03T02:37:14.417Z,99608.53
2022-11-03T02:38:19.864Z,99608.50
2022-11-03T02:39:40.477Z,99598.16
2022-11-03T02:40:50.658Z,99598.44
2022-11-03T02:41:56.446Z,99596.94
2022-11-03T02:42:59.954Z,99596.03
2022-11-03T02:44:04.318Z,99593.28
2022-11-03T02:45:13.303Z,99587.94
2022-11-03T02:46:19.497Z,99593.84
2022-11-03T02:47:23.630Z,99588.31
2022-11-03T02:48:26.173Z,99581.50
2022-11-03T02:49:28.342Z,99583.88
2022-11-03T02:50:32.710Z,99576.91
2022-11-03T02:51:34.961Z,99577.81
2022-11-03T02:52:40.631Z,99574.25
2022-11-03T02:53:56.586Z,99571.34
2022-11-03T02:55:02.046Z,99570.81
2022-11-03T02:56:10.572Z,99570.63
2022-11-03T02:57:19.001Z,99571.31
2022-11-03T02:58:23.886Z,99577.16
2022-11-03T02:59:37.578Z,99564.03
2022-11-03T03:01:03.062Z,99560.19
2022-11-03T03:02:11.666Z,99563.47
2022-11-03T03:03:30.847Z,99553.84
2022-11-03T03:04:37.972Z,99558.13
2022-11-03T03:05:42.452Z,99557.94
2022-11-03T03:06:50.626Z,99563.19
2022-11-03T03:08:02.162Z,99554.69
2022-11-03T03:09:09.096Z,99555.72
2022-11-03T03:10:17.819Z,99556.47
2022-11-03T03:11:37.182Z,99559.03
2022-11-03T03:12:46.779Z,99551.22
2022-11-03T03:13:49.161Z,99552.72
2022-11-03T03:14:53.509Z,99544.13
2022-11-03T03:16:05.527Z,99543.31
2022-11-03T03:17:32.123Z,99542.38
2022-11-03T03:18:51.041Z,99535.41
2022-11-03T03:19:59.240Z,99531.84
2022-11-03T03:21:07.269Z,99527.50
2022-11-03T03:22:20.945Z,99527.47
2022-11-03T03:23:29.808Z,99520.41
2022-11-03T03:24:44.925Z,99526.41
2022-11-03T03:25:54.073Z,99514.97
2022-11-03T03:26:59.050Z,99517.78
2022-11-03T03:28:07.817Z,99514.16
2022-11-03T03:29:16.995Z,99522.69
2022-11-03T03:30:19.618Z,99518.38
2022-11-03T03:31:24.242Z,99522.69
2022-11-03T03:32:28.432Z,99514.81
2022-11-03T03:33:32.699Z,99511.53
2022-11-03T03:34:39.219Z,99518.34
2022-11-03T03:35:46.109Z,99509.59
2022-11-03T03:36:50.030Z,99507.63
2022-11-03T03:37:57.601Z,99508.53
2022-11-03T03:39:04.428Z,99505.09
2022-11-03T03:40:11.837Z,99505.03
2022-11-03T03:41:22.040Z,99500.06
2022-11-03T03:42:28.464Z,99500.09
2022-11-03T03:43:33.912Z,99508.03
2022-11-03T03:44:39.344Z,99502.88
2022-11-03T03:45:45.142Z,99506.47
2022-11-03T03:47:04.250Z,99497.31
2022-11-03T03:48:07.193Z,99498.91
2022-11-03T03:49:09.659Z,99489.13
2022-11-03T03:50:11.996Z,99482.81
2022-11-03T03:51:17.547Z,99489.09
2022-11-03T03:52:20.098Z,99485.50
2022-11-03T03:53:22.269Z,99483.56
2022-11-03T03:54:24.588Z,99472.22
2022-11-03T03:55:37.158Z,99470.38
2022-11-03T03:56:48.409Z,99476.38
2022-11-03T03:57:50.561Z,99473.06
2022-11-03T03:58:52.711Z,99465.81
2022-11-03T03:59:54.998Z,99467.31
2022-11-03T04:00:57.266Z,99463.69
2022-11-03T04:01:59.721Z,99460.91
2022-11-03T04:03:01.932Z,99469.44
2022-11-03T04:04:04.273Z,99464.00
2022-11-03T04:05:06.899Z,99470.66
2022-11-03T04:06:09.352Z,99470.03
2022-11-03T04:07:30.569Z,99478.28
2022-11-03T04:08:32.795Z,99472.97
2022-11-03T04:09:34.980Z,99470.31
2022-11-03T04:10:37.124Z,99472.34
2022-11-03T04:11:58.108Z,99466.81
2022-11-03T04:13:18.641Z,99472.22
2022-11-03T04:14:39.598Z,99472.47
2022-11-03T04:16:00.107Z,99474.06
2022-11-03T04:17:20.956Z,99471.75
2022-11-03T04:18:41.876Z,99481.59
2022-11-03T04:20:02.676Z,99463.09
2022-11-03T04:21:25.180Z,99462.78
2022-11-03T04:22:32.364Z,99467.94
2022-11-03T04:23:34.597Z,99457.59
2022-11-03T04:24:36.804Z,99456.63
2022-11-03T04:25:39.046Z,99455.69
2022-11-03T04:26:41.249Z,99454.66
2022-11-03T04:27:44.444Z,99452.84
2022-11-03T04:28:46.873Z,99446.69
2022-11-03T04:29:49.083Z,99443.34
2022-11-03T04:30:54.639Z,99451.13
2022-11-03T04:31:59.916Z,99449.38
2022-11-03T04:33:02.061Z,99451.00
2022-11-03T04:34:10.281Z,99441.44
2022-11-03T04:35:26.345Z,99450.94
2022-11-03T04:36:29.080Z,99434.34
2022-11-03T04:37:31.269Z,99439.56
2022-11-03T04:38:33.938Z,99442.16
2022-11-03T04:39:36.205Z,99436.94
2022-11-03T04:40:41.597Z,99441.31
2022-11-03T04:41:44.217Z,99431.66
2022-11-03T04:42:47.369Z,99440.00
2022-11-03T04:43:50.401Z,99436.06
2022-11-03T04:44:52.555Z,99436.38
2022-11-03T04:45:54.776Z,99440.53
2022-11-03T04:46:57.025Z,99443.06
2022-11-03T04:48:01.544Z,99443.06
2022-11-03T04:49:05.770Z,99441.34
2022-11-03T04:50:17.237Z,99435.47
2022-11-03T04:51:24.371Z,99438.25
2022-11-03T04:52:26.545Z,99431.19
2022-11-03T04:53:32.188Z,99437.03
2022-11-03T04:54:34.432Z,99433.25
2022-11-03T04:55:36.624Z,99434.88
2022-11-03T04:56:40.399Z,99433.56
2022-11-03T04:57:43.567Z,99443.59
2022-11-03T04:58:48.117Z,99440.91
2022-11-03T04:59:51.148Z,99436.91
2022-11-03T05:00:57.899Z,99428.22
2022-11-03T05:02:01.068Z,99428.34
2022-11-03T05:03:03.799Z,99427.50
2022-11-03T05:04:12.992Z,99429.44
2022-11-03T05:05:20.894Z,99429.34
2022-11-03T05:06:26.959Z,99429.88
2022-11-03T05:07:34.544Z,99420.69
2022-11-03T05:08:36.941Z,99421.31
2022-11-03T05:09:42.809Z,99418.69
2022-11-03T05:10:46.318Z,99412.84
2022-11-03T05:11:48.776Z,99414.41
2022-11-03T05:12:52.617Z,99413.47
2022-11-03T05:14:00.382Z,99404.59
2022-11-03T05:15:20.832Z,99403.63
2022-11-03T05:16:23.025Z,99402.66
2022-11-03T05:17:27.836Z,99399.91
2022-11-03T05:18:35.234Z,99390.41
2022-11-03T05:19:41.062Z,99396.38
2022-11-03T05:20:49.428Z,99391.13
2022-11-03T05:21:54.489Z,99390.31
2022-11-03T05:22:57.044Z,99386.78
2022-11-03T05:24:03.487Z,99386.78
2022-11-03T05:25:43.072Z,99386.16
2022-11-03T05:26:45.417Z,99384.16
2022-11-03T05:27:47.596Z,99373.44
2022-11-03T05:28:56.302Z,99379.66
2022-11-03T05:30:01.104Z,99374.69
2022-11-03T05:31:20.659Z,99373.88
2022-11-03T05:32:27.519Z,99369.66
2022-11-03T05:33:35.540Z,99364.22
2022-11-03T05:34:46.793Z,99359.72
2022-11-03T05:35:49.184Z,99365.56
2022-11-03T05:36:51.370Z,99357.91
2022-11-03T05:37:53.550Z,99363.38
2022-11-03T05:39:01.084Z,99351.91
2022-11-03T05:40:08.296Z,99355.19
2022-11-03T05:41:25.953Z,99356.19
2022-11-03T05:42:35.218Z,99365.91
2022-11-03T05:43:37.459Z,99359.72
2022-11-03T05:44:40.574Z,99355.19
2022-11-03T05:45:43.253Z,99354.53
2022-11-03T05:46:45.375Z,99356.63
2022-11-03T05:47:49.279Z,99352.44
2022-11-03T05:48:51.520Z,99349.00
2022-11-03T05:50:06.224Z,99354.97
2022-11-03T05:51:21.737Z,99346.78
2022-11-03T05:52:26.866Z,99356.09
2022-11-03T05:53:42.080Z,99355.25
2022-11-03T05:54:44.262Z,99353.88
2022-11-03T05:55:46.535Z,99352.28
2022-11-03T05:56:49.410Z,99354.22
2022-11-03T05:57:52.209Z,99345.66
2022-11-03T05:58:57.155Z,99354.16
2022-11-03T06:00:00.130Z,99346.94
2022-11-03T06:01:11.103Z,99339.06
2022-11-03T06:02:39.272Z,99342.59
2022-11-03T06:03:41.461Z,99332.75
2022-11-03T06:04:43.660Z,99338.22
2022-11-03T06:05:47.224Z,99328.63
2022-11-03T06:07:10.887Z,99324.88
2022-11-03T06:08:21.730Z,99316.78
2022-11-03T06:09:26.791Z,99319.25
2022-11-03T06:10:35.921Z,99311.28
2022-11-03T06:11:38.545Z,99308.47
2022-11-03T06:12:41.169Z,99309.28
2022-11-03T06:13:43.417Z,99316.19
2022-11-03T06:14:45.684Z,99310.91
2022-11-03T06:15:53.368Z,99308.09
2022-11-03T06:17:10.058Z,99303.59
2022-11-03T06:18:19.148Z,99294.94
2022-11-03T06:19:35.578Z,99297.63
2022-11-03T06:20:42.416Z,99301.13
2022-11-03T06:21:45.084Z,99295.06
2022-11-03T06:22:48.999Z,99296.63
2022-11-03T06:23:53.813Z,99307.69
2022-11-03T06:25:18.100Z,99303.19
2022-11-03T06:26:26.828Z,99298.63
2022-11-03T06:27:34.066Z,99314.88
2022-11-03T06:28:42.371Z,99311.41
2022-11-03T06:29:51.845Z,99317.75
2022-11-03T06:30:54.048Z,99320.75
2022-11-03T06:31:57.928Z,99322.28
2022-11-03T06:33:10.541Z,99328.50
2022-11-03T06:34:22.483Z,99326.81
2022-11-03T06:35:25.348Z,99331.28
2022-11-03T06:36:36.037Z,99334.16
2022-11-03T06:37:38.220Z,99332.63
2022-11-03T06:38:40.395Z,99321.41
2022-11-03T06:39:42.633Z,99322.41
2022-11-03T06:40:46.291Z,99323.97
2022-11-03T06:41:48.454Z,99321.28
2022-11-03T06:42:54.085Z,99312.50
2022-11-03T06:43:58.357Z,99318.06
2022-11-03T06:45:02.525Z,99313.25
2022-11-03T06:46:14.114Z,99302.16
2022-11-03T06:47:27.599Z,99298.28
2022-11-03T06:48:33.210Z,99298.81
2022-11-03T06:49:35.952Z,99290.97
2022-11-03T06:50:43.827Z,99293.00
2022-11-03T06:51:46.972Z,99282.00
2022-11-03T06:52:50.172Z,99285.28
2022-11-03T06:53:54.547Z,99278.38
2022-11-03T06:55:20.731Z,99272.69
2022-11-03T06:56:26.165Z,99273.56
2022-11-03T06:57:33.637Z,99272.09
2022-11-03T06:58:38.369Z,99273.28
2022-11-03T06:59:40.723Z,99265.94
2022-11-03T07:00:49.029Z,99278.94
2022-11-03T07:01:55.312Z,99268.28
2022-11-03T07:03:09.243Z,99265.88
2022-11-03T07:04:18.262Z,99269.94
2022-11-03T07:05:23.893Z,99264.84
2022-11-03T07:06:31.252Z,99262.88
2022-11-03T07:07:33.372Z,99260.53
2022-11-03T07:08:36.685Z,99263.75
2022-11-03T07:09:39.219Z,99256.16
2022-11-03T07:10:41.405Z,99258.59
2022-11-03T07:11:52.110Z,99255.53
2022-11-03T07:12:55.792Z,99257.00
2022-11-03T07:14:02.884Z,99257.72
2022-11-03T07:15:26.404Z,99262.69
2022-11-03T07:16:33.579Z,99255.34
2022-11-03T07:17:35.891Z,99259.44
2022-11-03T07:18:42.787Z,99258.69
2022-11-03T07:19:45.788Z,99253.91
2022-11-03T07:20:48.334Z,99249.94
2022-11-03T07:21:56.494Z,99240.75
2022-11-03T07:23:02.078Z,99251.44
2022-11-03T07:24:25.427Z,99253.72
2022-11-03T07:25:27.601Z,99244.56
2022-11-03T07:26:30.133Z,99250.59
2022-11-03T07:27:36.434Z,99244.38
2022-11-03T07:28:41.877Z,99244.91
2022-11-03T07:29:45.538Z,99241.09
2022-11-03T07:30:47.725Z,99236.22
2022-11-03T07:31:52.178Z,99227.81
2022-11-03T07:33:00.773Z,99232.84
2022-11-03T07:34:05.615Z,99231.38
2022-11-03T07:35:41.632Z,99226.72
2022-11-03T07:36:57.910Z,99238.81
2022-11-03T07:38:05.237Z,99231.44
2022-11-03T07:39:15.887Z,99228.88
2022-11-03T07:40:24.829Z,99227.88
2022-11-03T07:41:32.904Z,99231.13
2022-11-03T07:42:40.285Z,99225.81
2022-11-03T07:43:49.398Z,99223.19
2022-11-03T07:44:52.691Z,99223.78
2022-11-03T07:46:00.586Z,99224.97
2022-11-03T07:47:03.213Z,99225.22
2022-11-03T07:48:25.528Z,99222.34
2022-11-03T07:49:29.999Z,99217.16
2022-11-03T07:50:32.171Z,99225.72
2022-11-03T07:51:40.637Z,99223.19
2022-11-03T07:52:43.579Z,99221.38
2022-11-03T07:53:47.560Z,99220.78
2022-11-03T07:54:51.302Z,99213.50
2022-11-03T07:55:56.383Z,99212.59
2022-11-03T07:57:13.979Z,99206.34
2022-11-03T07:58:22.059Z,99209.78
2022-11-03T07:59:32.973Z,99219.03
2022-11-03T08:00:36.215Z,99206.41
2022-11-03T08:01:42.500Z,99202.31
2022-11-03T08:02:52.641Z,99188.75
2022-11-03T08:03:58.734Z,99183.22
2022-11-03T08:05:01.571Z,99179.31
2022-11-03T08:06:06.128Z,99181.53
2022-11-03T08:07:11.505Z,99183.31
2022-11-03T08:08:13.719Z,99182.94
2022-11-03T08:09:15.902Z,99165.78
2022-11-03T08:10:18.100Z,99172.88
2022-11-03T08:11:24.678Z,99159.63
2022-11-03T08:12:30.195Z,99174.66
2022-11-03T08:13:32.626Z,99162.97
2022-11-03T08:14:35.416Z,99161.69
2022-11-03T08:15:37.642Z,99161.53
2022-11-03T08:16:39.880Z,99162.38
2022-11-03T08:17:42.065Z,99156.56
2022-11-03T08:18:44.297Z,99157.00
2022-11-03T08:19:46.473Z,99150.91
2022-11-03T08:20:48.658Z,99150.56
2022-11-03T08:21:50.844Z,99138.84
2022-11-03T08:23:19.673Z,99136.28
2022-11-03T08:24:15.370Z,99134.34
2022-11-03T08:25:17.771Z,99134.50
2022-11-03T08:26:20.674Z,99123.53
2022-11-03T08:27:22.849Z,99132.34
2022-11-03T08:28:25.214Z,99125.47
2022-11-03T08:29:27.397Z,99128.72
2022-11-03T08:30:30.399Z,99120.41
2022-11-03T08:31:32.744Z,99120.03
2022-11-03T08:32:35.071Z,99123.97
2022-11-03T08:33:37.253Z,99125.38
2022-11-03T08:34:39.435Z,99128.34
2022-11-03T08:35:41.698Z,99125.72
2022-11-03T08:36:43.945Z,99128.63
2022-11-03T08:37:46.150Z,99128.81
2022-11-03T08:38:48.315Z,99134.66
2022-11-03T08:39:50.464Z,99134.28
2022-11-03T08:40:55.316Z,99133.41
2022-11-03T08:41:57.624Z,99131.22
2022-11-03T08:43:02.857Z,99135.09
2022-11-03T08:44:05.931Z,99136.03
2022-11-03T08:45:08.402Z,99133.22
2022-11-03T08:46:17.148Z,99132.94
2022-11-03T08:47:20.115Z,99133.78
2022-11-03T08:48:29.796Z,99128.28
2022-11-03T08:49:31.937Z,99127.06
2022-11-03T08:50:34.183Z,99129.78
2022-11-03T08:51:41.446Z,99124.25
2022-11-03T08:52:46.214Z,99118.19
2022-11-03T08:53:53.890Z,99122.28
2022-11-03T08:55:59.220Z,99130.03
2022-11-03T08:57:01.510Z,99125.38
2022-11-03T08:58:04.374Z,99127.53
2022-11-03T08:59:07.642Z,99127.22
2022-11-03T09:00:10.750Z,99125.53
2022-11-03T09:01:13.752Z,99121.53
2022-11-03T09:02:16.238Z,99116.03
2022-11-03T09:03:19.832Z,99119.56
2022-11-03T09:04:22.238Z,99117.66
2022-11-03T09:05:24.435Z,99119.03
2022-11-03T09:06:26.631Z,99113.16
2022-11-03T09:10:22.372Z,99117.22
2022-11-03T09:11:27.037Z,99120.00
2022-11-03T09:12:29.217Z,99116.53
2022-11-03T09:13:31.649Z,99120.13
2022-11-03T09:14:33.863Z,99122.16
2022-11-03T09:15:36.240Z,99127.53
2022-11-03T09:16:38.483Z,99120.78
2022-11-03T09:17:43.271Z,99119.75
2022-11-03T09:18:49.030Z,99113.47
2022-11-03T09:19:51.241Z,99116.88
2022-11-03T09:20:53.492Z,99108.03
2022-11-03T09:21:55.710Z,99105.06
2022-11-03T09:22:57.878Z,99104.38
2022-11-03T09:24:00.281Z,99101.09
2022-11-03T09:25:02.508Z,99097.28
2022-11-03T09:26:06.632Z,99099.75
2022-11-03T09:27:08.856Z,99101.09
2022-11-03T09:28:11.555Z,99095.38
2022-11-03T09:29:13.780Z,99096.47
2022-11-03T09:30:17.677Z,99098.53
2022-11-03T09:31:20.874Z,99098.75
2022-11-03T09:32:23.827Z,99096.56
2022-11-03T09:33:26.041Z,99082.59
2022-11-03T09:34:29.925Z,99096.63
2022-11-03T09:35:32.090Z,99085.22
2022-11-03T09:36:34.293Z,99081.25
2022-11-03T09:37:37.918Z,99081.19
2022-11-03T09:38:40.128Z,99083.13
2022-11-03T09:39:43.111Z,99080.94
2022-11-03T09:40:45.308Z,99077.28
2022-11-03T09:41:58.350Z,99070.47
2022-11-03T09:43:01.151Z,99080.19
2022-11-03T09:44:03.549Z,99067.41
2022-11-03T09:45:08.154Z,99075.13
2022-11-03T09:46:10.977Z,99061.47
2022-11-03T09:47:22.542Z,99067.94
2022-11-03T09:48:25.582Z,99068.34
2022-11-03T09:49:32.105Z,99065.47
2022-11-03T09:50:34.364Z,99059.25
2022-11-03T09:51:36.759Z,99067.56
2022-11-03T09:52:39.047Z,99067.41
2022-11-03T09:53:41.553Z,99062.53
2022-11-03T09:54:43.740Z,99071.00
2022-11-03T09:55:46.100Z,99062.38
2022-11-03T09:56:48.344Z,99065.56
2022-11-03T09:57:52.858Z,99068.97
2022-11-03T09:58:55.082Z,99059.16
2022-11-03T09:59:57.371Z,99065.00
2022-11-03T10:01:01.040Z,99065.88
2022-11-03T10:02:03.411Z,99053.31
2022-11-03T10:03:06.342Z,99057.72
2022-11-03T10:04:11.112Z,99059.22
2022-11-03T10:05:22.625Z,99050.84
2022-11-03T10:06:24.850Z,99058.00
2022-11-03T10:07:29.969Z,99048.03
2022-11-03T10:08:35.467Z,99052.69
2022-11-03T10:09:42.186Z,99056.31
2022-11-03T10:10:44.444Z,99039.19
2022-11-03T10:11:47.477Z,99039.88
2022-11-03T10:12:53.032Z,99035.69
2022-11-03T10:13:56.289Z,99025.75
2022-11-03T10:14:59.703Z,99028.88
2022-11-03T10:16:05.160Z,99037.50
2022-11-03T10:17:14.877Z,99030.16
2022-11-03T10:18:18.877Z,99028.81
2022-11-03T10:19:21.328Z,99027.19
2022-11-03T10:20:23.766Z,99033.56
2022-11-03T10:21:29.543Z,99021.63
2022-11-03T10:22:31.838Z,99024.56
2022-11-03T10:23:34.030Z,99025.41
2022-11-03T10:24:36.723Z,99018.25
2022-11-03T10:25:43.821Z,99030.56
2022-11-03T10:26:51.164Z,99026.00
2022-11-03T10:28:14.688Z,99022.44
2022-11-03T10:29:23.021Z,99022.66
2022-11-03T10:30:25.256Z,99018.88
2022-11-03T10:31:38.358Z,99008.31
2022-11-03T10:32:41.414Z,99008.56
2022-11-03T10:33:55.942Z,99016.06
2022-11-03T10:34:58.181Z,99001.69
2022-11-03T10:36:02.433Z,99000.38
2022-11-03T10:37:26.021Z,98999.22
2022-11-03T10:38:33.696Z,99003.63
2022-11-03T10:39:36.037Z,99006.50
2022-11-03T10:40:53.262Z,99002.75
2022-11-03T10:41:59.623Z,99007.78
2022-11-03T10:43:01.877Z,98995.50
2022-11-03T10:44:12.864Z,98995.16
2022-11-03T10:45:17.814Z,99005.19
2022-11-03T10:48:07.071Z,98989.09
2022-11-03T10:49:15.519Z,98993.56
2022-11-03T10:50:26.347Z,98974.00
2022-11-03T10:51:31.610Z,98977.50
2022-11-03T10:53:42.477Z,98975.19
2022-11-03T10:54:45.392Z,98971.44
2022-11-03T10:55:47.613Z,98966.00
2022-11-03T10:56:51.734Z,98965.59
2022-11-03T10:57:58.173Z,98960.38
2022-11-03T10:59:01.692Z,98949.63
2022-11-03T11:00:04.883Z,98961.97
2022-11-03T11:01:10.933Z,98957.41
2022-11-03T11:02:20.880Z,98959.75
2022-11-03T11:03:23.336Z,98958.00
2022-11-03T11:04:25.880Z,98944.03
2022-11-03T11:05:28.202Z,98940.03
2022-11-03T11:06:31.204Z,98937.81
2022-11-03T11:07:41.949Z,98935.63
2022-11-03T11:08:44.148Z,98934.50
2022-11-03T11:09:46.616Z,98928.97
2022-11-03T11:10:49.145Z,98934.66
2022-11-03T11:12:30.153Z,98937.66
2022-11-03T11:13:32.358Z,98931.72
2022-11-03T11:14:37.956Z,98928.22
2022-11-03T11:15:42.780Z,98924.22
2022-11-03T11:16:50.777Z,98922.16
2022-11-03T11:17:52.997Z,98926.50
2022-11-03T11:18:55.135Z,98920.97
2022-11-03T11:20:18.858Z,98910.28
2022-11-03T11:21:21.173Z,98915.63
2022-11-03T11:22:23.812Z,98907.72
2022-11-03T11:23:29.099Z,98917.34
2022-11-03T11:24:43.311Z,98908.84
2022-11-03T11:26:11.034Z,98898.78
2022-11-03T11:27:34.534Z,98908.22
2022-11-03T11:28:37.633Z,98899.09
2022-11-03T11:29:39.580Z,98897.31
2022-11-03T11:30:41.593Z,98905.13
2022-11-03T11:31:45.075Z,98899.78
2022-11-03T11:32:49.892Z,98900.69
2022-11-03T11:34:21.171Z,98889.88
2022-11-03T11:35:26.239Z,98894.69
2022-11-03T11:36:28.609Z,98895.50
2022-11-03T11:37:30.743Z,98895.13
2022-11-03T11:38:55.591Z,98888.03
2022-11-03T11:39:57.767Z,98888.94
2022-11-03T11:40:59.948Z,98881.50
2022-11-03T11:42:13.137Z,98882.19
2022-11-03T11:43:26.532Z,98878.97
2022-11-03T11:44:43.242Z,98877.06
2022-11-03T11:46:22.852Z,98863.97
2022-11-03T11:47:29.095Z,98870.53
2022-11-03T11:48:32.060Z,98853.88
2022-11-03T11:49:34.286Z,98856.44
2022-11-03T11:50:38.353Z,98851.34
2022-11-03T11:51:40.597Z,98845.59
2022-11-03T11:52:50.315Z,98857.56
2022-11-03T11:54:17.443Z,98859.34
2022-11-03T11:55:41.994Z,98855.19
2022-11-03T11:56:46.478Z,98847.22
2022-11-03T11:57:48.801Z,98838.16
2022-11-03T11:58:56.237Z,98835.72
2022-11-03T11:59:58.572Z,98836.84
2022-11-03T12:01:23.930Z,98832.03
2022-11-03T12:02:30.187Z,98833.94
2022-11-03T12:03:39.003Z,98835.16
2022-11-03T12:04:47.026Z,98831.69
2022-11-03T12:05:50.286Z,98821.88
2022-11-03T12:06:56.660Z,98814.63
2022-11-03T12:08:02.068Z,98823.09
2022-11-03T12:09:16.009Z,98826.47
2022-11-03T12:10:22.603Z,98817.16
2022-11-03T12:11:45.836Z,98817.91
2022-11-03T12:12:50.050Z,98807.47
2022-11-03T12:13:52.921Z,98811.41
2022-11-03T12:14:55.249Z,98807.91
2022-11-03T12:15:58.574Z,98813.31
2022-11-03T12:17:15.938Z,98792.22
2022-11-03T12:18:50.825Z,98801.06
2022-11-03T12:19:54.826Z,98800.59
2022-11-03T12:20:57.171Z,98789.75
2022-11-03T12:21:59.515Z,98792.41
2022-11-03T12:23:01.730Z,98791.16
2022-11-03T12:24:25.337Z,98794.22
2022-11-03T12:25:37.083Z,98787.41
2022-11-03T12:26:42.424Z,98784.75
2022-11-03T12:27:44.992Z,98790.50
2022-11-03T12:28:47.706Z,98791.94
2022-11-03T12:29:58.206Z,98790.03
2022-11-03T12:31:03.699Z,98780.81
2022-11-03T12:32:11.800Z,98770.81
2022-11-03T12:33:18.548Z,98771.19
2022-11-03T12:34:20.711Z,98762.72
2022-11-03T12:35:23.515Z,98767.53
2022-11-03T12:36:25.711Z,98769.31
2022-11-03T12:37:28.041Z,98761.22
2022-11-03T12:38:30.383Z,98761.03
2022-11-03T12:39:32.717Z,98763.69
2022-11-03T12:40:34.893Z,98766.50
2022-11-03T12:41:37.048Z,98755.78
2022-11-03T12:42:39.969Z,98749.63
2022-11-03T12:43:42.226Z,98753.41
2022-11-03T12:44:44.571Z,98752.00
2022-11-03T12:45:47.020Z,98752.91
2022-11-03T12:46:49.262Z,98740.97
2022-11-03T12:47:51.560Z,98744.16
2022-11-03T12:48:53.781Z,98750.75
2022-11-03T12:49:55.960Z,98748.28
2022-11-03T12:50:58.119Z,98737.09
2022-11-03T12:52:08.119Z,98744.47
2022-11-03T12:53:10.696Z,98732.78
2022-11-03T12:54:13.057Z,98731.91
2022-11-03T12:55:15.300Z,98724.63
2022-11-03T12:56:18.953Z,98732.84
2022-11-03T12:57:21.357Z,98732.66
2022-11-03T12:58:23.527Z,98728.03
2022-11-03T12:59:26.363Z,98725.22
2022-11-03T13:00:28.625Z,98723.50
2022-11-03T13:01:30.979Z,98719.44
2022-11-03T13:02:34.476Z,98716.94
2022-11-03T13:03:40.976Z,98715.81
2022-11-03T13:04:43.164Z,98714.94
2022-11-03T13:05:45.493Z,98709.94
2022-11-03T13:06:47.785Z,98707.31
2022-11-03T13:07:53.253Z,98707.78